createdAt,value
2019-03-23T00:01:19.204Z,38.37
2019-03-23T00:03:47.830Z,28.80
2019-03-23T00:06:16.251Z,32.80
2019-03-23T00:08:44.723Z,25.80
2019-03-23T00:11:13.130Z,30.77
2019-03-23T00:13:41.634Z,33.93
2019-03-23T00:16:10.065Z,25.80
2019-03-23T00:18:38.455Z,27.13
2019-03-23T00:21:06.850Z,25.67
2019-03-23T00:23:35.290Z,28.80
2019-03-23T00:26:03.695Z,25.13
2019-03-23T00:28:32.095Z,26.70
2019-03-23T00:31:00.790Z,27.13
2019-03-23T00:33:29.230Z,25.03
2019-03-23T00:35:57.715Z,26.87
2019-03-23T00:38:26.162Z,27.33
2019-03-23T00:40:54.562Z,23.73
2019-03-23T00:43:23.079Z,27.40
2019-03-23T00:45:51.491Z,27.37
2019-03-23T00:48:19.887Z,29.90
2019-03-23T00:50:48.296Z,27.50
2019-03-23T00:53:17.052Z,28.07
2019-03-23T00:55:45.550Z,28.73
2019-03-23T00:58:13.966Z,25.00
2019-03-23T01:00:42.430Z,28.77
2019-03-23T01:03:10.850Z,25.53
2019-03-23T01:05:39.695Z,25.90
2019-03-23T01:08:08.132Z,24.97
2019-03-23T01:10:36.806Z,27.97
2019-03-23T01:13:05.284Z,24.90
2019-03-23T01:15:33.791Z,26.63
2019-03-23T01:18:02.256Z,23.00
2019-03-23T01:20:30.670Z,28.97
2019-03-23T01:22:59.234Z,24.03
2019-03-23T01:25:27.633Z,27.83
2019-03-23T01:27:56.378Z,33.23
2019-03-23T01:30:24.778Z,24.83
2019-03-23T01:32:53.489Z,29.20
2019-03-23T01:35:21.943Z,24.40
2019-03-23T01:37:50.343Z,23.20
2019-03-23T01:40:19.025Z,30.90
2019-03-23T01:42:47.415Z,26.10
2019-03-23T01:45:16.083Z,25.40
2019-03-23T01:47:44.496Z,26.83
2019-03-23T01:50:13.072Z,24.53
2019-03-23T01:52:41.487Z,23.40
2019-03-23T01:55:10.387Z,22.90
2019-03-23T01:57:38.786Z,27.57
2019-03-23T02:00:28.152Z,27.33
2019-03-23T02:02:56.551Z,23.77
2019-03-23T02:05:25.118Z,25.03
2019-03-23T02:07:53.531Z,26.73
2019-03-23T02:10:21.948Z,27.87
2019-03-23T02:12:50.345Z,26.90
2019-03-23T02:15:18.742Z,29.33
2019-03-23T02:17:47.143Z,29.70
2019-03-23T02:20:15.915Z,28.30
2019-03-23T02:22:44.302Z,26.57
2019-03-23T02:25:13.042Z,29.97
2019-03-23T02:27:41.506Z,25.07
2019-03-23T02:30:11.477Z,26.27
2019-03-23T02:32:39.882Z,27.00
2019-03-23T02:35:09.208Z,27.80
2019-03-23T02:37:37.688Z,27.47
2019-03-23T02:40:07.733Z,30.23
2019-03-23T02:42:36.134Z,24.53
2019-03-23T02:45:09.629Z,25.67
2019-03-23T02:47:38.017Z,28.37
2019-03-23T02:50:07.770Z,28.47
2019-03-23T02:52:36.707Z,27.70
2019-03-23T02:55:08.654Z,25.90
2019-03-23T02:57:37.052Z,24.67
2019-03-23T03:00:11.207Z,25.23
2019-03-23T03:02:39.609Z,28.43
2019-03-23T03:05:09.181Z,24.87
2019-03-23T03:07:42.545Z,26.07
2019-03-23T03:10:10.476Z,25.73
2019-03-23T03:12:38.941Z,27.23
2019-03-23T03:15:08.172Z,29.70
2019-03-23T03:17:36.685Z,25.13
2019-03-23T03:20:07.667Z,25.47
2019-03-23T03:22:36.061Z,27.97
2019-03-23T03:25:06.515Z,25.10
2019-03-23T03:27:34.918Z,24.73
2019-03-23T03:30:03.786Z,24.10
2019-03-23T03:32:32.205Z,26.57
2019-03-23T03:35:00.780Z,27.83
2019-03-23T03:37:29.291Z,29.63
2019-03-23T03:39:57.699Z,29.27
2019-03-23T03:42:26.118Z,26.93
2019-03-23T03:44:54.535Z,26.73
2019-03-23T03:47:22.988Z,27.23
2019-03-23T03:49:51.639Z,29.37
2019-03-23T03:52:20.106Z,25.97
2019-03-23T03:54:48.508Z,29.60
2019-03-23T03:57:16.920Z,25.00
2019-03-23T03:59:45.319Z,29.20
2019-03-23T04:02:14.185Z,27.33
2019-03-23T04:04:42.582Z,29.67
2019-03-23T04:07:10.996Z,30.30
2019-03-23T04:09:40.505Z,29.33
2019-03-23T04:12:09.067Z,28.20
2019-03-23T04:14:37.470Z,26.17
2019-03-23T04:17:06.119Z,26.90
2019-03-23T04:19:34.524Z,30.40
2019-03-23T04:22:03.006Z,26.90
2019-03-23T04:24:31.507Z,25.67
2019-03-23T04:27:01.619Z,29.23
2019-03-23T04:29:30.020Z,30.87
2019-03-23T04:31:58.441Z,29.10
2019-03-23T04:34:26.881Z,30.63
2019-03-23T04:36:55.424Z,30.03
2019-03-23T04:39:24.016Z,31.23
2019-03-23T04:41:52.422Z,28.77
2019-03-23T04:44:20.819Z,24.93
2019-03-23T04:46:49.259Z,26.03
2019-03-23T04:49:17.729Z,26.90
2019-03-23T04:51:46.149Z,26.00
2019-03-23T04:54:14.808Z,25.27
2019-03-23T04:56:43.206Z,24.40
2019-03-23T04:59:11.606Z,24.93
2019-03-23T05:01:40.424Z,27.33
2019-03-23T05:04:09.741Z,21.63
2019-03-23T05:06:38.179Z,26.33
2019-03-23T05:09:08.610Z,26.73
2019-03-23T05:11:37.020Z,30.00
2019-03-23T05:14:05.432Z,24.80
2019-03-23T05:16:33.907Z,24.80
2019-03-23T05:19:02.309Z,29.03
2019-03-23T05:21:30.748Z,27.43
2019-03-23T05:23:59.147Z,27.53
2019-03-23T05:26:27.611Z,29.27
2019-03-23T05:28:56.014Z,33.47
2019-03-23T05:31:24.415Z,27.90
2019-03-23T05:33:53.061Z,30.90
2019-03-23T05:36:21.458Z,30.57
2019-03-23T05:38:50.104Z,30.13
2019-03-23T05:41:18.722Z,32.60
2019-03-23T05:43:47.184Z,26.20
2019-03-23T05:46:15.588Z,30.77
2019-03-23T05:48:44.004Z,31.23
2019-03-23T05:51:12.406Z,28.10
2019-03-23T05:53:41.110Z,24.43
2019-03-23T05:56:09.515Z,32.43
2019-03-23T05:58:37.963Z,30.70
2019-03-23T06:01:06.807Z,29.90
2019-03-23T06:03:35.219Z,33.20
2019-03-23T06:06:03.966Z,35.47
2019-03-23T06:08:32.365Z,33.00
2019-03-23T06:11:00.857Z,40.67
2019-03-23T06:13:29.251Z,37.77
2019-03-23T06:15:57.666Z,36.83
2019-03-23T06:18:26.067Z,36.23
2019-03-23T06:20:54.470Z,33.03
2019-03-23T06:23:22.991Z,36.73
2019-03-23T06:25:51.388Z,36.03
2019-03-23T06:28:19.834Z,39.00
2019-03-23T06:30:48.558Z,41.33
2019-03-23T06:33:16.959Z,34.70
2019-03-23T06:35:45.364Z,41.33
2019-03-23T06:38:16.210Z,37.90
2019-03-23T06:40:44.232Z,35.33
2019-03-23T06:43:12.711Z,34.00
2019-03-23T06:45:41.127Z,39.63
2019-03-23T06:48:09.541Z,29.47
2019-03-23T06:50:37.958Z,28.60
2019-03-23T06:53:06.371Z,26.23
2019-03-23T06:55:34.880Z,28.17
2019-03-23T06:58:03.285Z,28.07
2019-03-23T07:00:31.871Z,26.97
2019-03-23T07:03:00.271Z,23.57
2019-03-23T07:05:28.740Z,23.93
2019-03-23T07:08:16.562Z,26.00
2019-03-23T07:10:44.963Z,21.80
2019-03-23T07:13:13.413Z,22.87
2019-03-23T07:15:41.815Z,24.03
2019-03-23T07:18:10.223Z,21.27
2019-03-23T07:20:38.626Z,23.40
2019-03-23T07:23:07.413Z,24.20
2019-03-23T07:25:35.810Z,22.00
2019-03-23T07:28:04.266Z,18.83
2019-03-23T07:30:32.679Z,20.23
2019-03-23T07:33:01.111Z,21.80
2019-03-23T07:35:29.531Z,22.47
2019-03-23T07:37:57.932Z,22.00
2019-03-23T07:40:26.418Z,19.60
2019-03-23T07:42:54.827Z,21.87
2019-03-23T07:45:23.299Z,19.47
2019-03-23T07:47:51.694Z,18.47
2019-03-23T07:50:20.135Z,20.57
2019-03-23T07:52:48.564Z,23.20
2019-03-23T07:55:17.422Z,20.23
2019-03-23T07:57:45.835Z,21.70
2019-03-23T08:00:20.232Z,20.77
2019-03-23T08:02:48.754Z,17.27
2019-03-23T08:05:17.226Z,21.67
2019-03-23T08:07:45.700Z,21.63
2019-03-23T08:10:33.302Z,19.60
2019-03-23T08:13:01.845Z,19.03
2019-03-23T08:15:30.784Z,17.43
2019-03-23T08:17:59.824Z,19.47
2019-03-23T08:20:28.366Z,23.17
2019-03-23T08:22:56.775Z,20.77
2019-03-23T08:25:25.240Z,19.60
2019-03-23T08:27:53.733Z,17.63
2019-03-23T08:30:22.149Z,21.80
2019-03-23T08:32:50.617Z,18.40
2019-03-23T08:35:19.054Z,21.10
2019-03-23T08:37:47.553Z,19.80
2019-03-23T08:40:16.244Z,17.53
2019-03-23T08:42:44.649Z,19.63
2019-03-23T08:45:13.318Z,21.30
2019-03-23T08:47:41.770Z,20.63
2019-03-23T08:50:10.419Z,21.37
2019-03-23T08:52:38.882Z,21.83
2019-03-23T08:55:07.370Z,23.27
2019-03-23T08:57:35.811Z,24.67
2019-03-23T09:00:06.944Z,21.33
2019-03-23T09:02:35.906Z,19.10
2019-03-23T09:05:05.860Z,26.97
2019-03-23T09:07:34.385Z,25.07
2019-03-23T09:10:03.950Z,21.10
2019-03-23T09:12:32.376Z,24.90
2019-03-23T09:15:00.898Z,22.27
2019-03-23T09:17:29.331Z,24.60
2019-03-23T09:19:57.730Z,26.63
2019-03-23T09:22:26.126Z,31.67
2019-03-23T09:24:57.132Z,25.90
2019-03-23T09:27:24.686Z,26.03
2019-03-23T09:29:53.101Z,27.33
2019-03-23T09:32:21.718Z,26.43
2019-03-23T09:34:50.313Z,21.20
2019-03-23T09:37:18.847Z,27.77
2019-03-23T09:39:47.294Z,31.37
2019-03-23T09:42:15.762Z,25.23
2019-03-23T09:44:44.195Z,27.57
2019-03-23T09:47:12.610Z,28.53
2019-03-23T09:49:41.062Z,23.17
2019-03-23T09:52:09.466Z,28.30
2019-03-23T09:54:38.367Z,27.23
2019-03-23T09:57:06.766Z,27.10
2019-03-23T09:59:35.235Z,27.63
2019-03-23T10:02:03.833Z,29.87
2019-03-23T10:04:32.322Z,30.53
2019-03-23T10:07:00.746Z,29.43
2019-03-23T10:09:29.310Z,25.83
2019-03-23T10:11:59.261Z,32.10
2019-03-23T10:14:27.784Z,26.30
2019-03-23T10:16:56.200Z,28.93
2019-03-23T10:19:24.970Z,28.50
2019-03-23T10:21:53.367Z,30.50
2019-03-23T10:24:21.786Z,26.30
2019-03-23T10:26:52.118Z,27.37
2019-03-23T10:29:20.345Z,29.50
2019-03-23T10:31:48.758Z,27.60
2019-03-23T10:34:17.161Z,30.47
2019-03-23T10:36:45.582Z,28.70
2019-03-23T10:39:14.068Z,32.70
2019-03-23T10:41:42.481Z,29.03
2019-03-23T10:44:11.042Z,29.83
2019-03-23T10:46:39.530Z,90.10
2019-03-23T10:49:08.191Z,28.27
2019-03-23T10:51:36.588Z,28.87
2019-03-23T10:54:05.090Z,29.27
2019-03-23T10:56:33.499Z,29.70
2019-03-23T10:59:01.909Z,29.80
2019-03-23T11:01:30.437Z,27.40
2019-03-23T11:03:58.807Z,27.30
2019-03-23T11:06:27.210Z,29.63
2019-03-23T11:08:55.621Z,28.60
2019-03-23T11:11:24.027Z,29.97
2019-03-23T11:13:52.506Z,30.07
2019-03-23T11:16:21.010Z,24.77
2019-03-23T11:18:49.452Z,23.90
2019-03-23T11:21:17.850Z,28.77
2019-03-23T11:23:46.262Z,33.53
2019-03-23T11:26:14.680Z,29.70
2019-03-23T11:28:43.146Z,29.57
2019-03-23T11:31:11.662Z,29.40
2019-03-23T11:33:40.130Z,32.27
2019-03-23T11:36:08.523Z,25.53
2019-03-23T11:38:37.011Z,30.57
2019-03-23T11:41:05.415Z,33.13
2019-03-23T11:43:34.864Z,29.73
2019-03-23T11:46:03.227Z,29.07
2019-03-23T11:48:31.640Z,30.17
2019-03-23T11:51:00.052Z,27.27
2019-03-23T11:53:28.445Z,28.87
2019-03-23T11:55:56.908Z,28.20
2019-03-23T11:58:26.231Z,28.53
2019-03-23T12:00:54.665Z,25.40
2019-03-23T12:03:23.235Z,27.00
2019-03-23T12:05:51.651Z,25.90
2019-03-23T12:08:20.084Z,29.23
2019-03-23T12:10:48.492Z,27.00
2019-03-23T12:13:17.012Z,25.17
2019-03-23T12:15:45.558Z,25.00
2019-03-23T12:18:13.985Z,28.03
2019-03-23T12:20:42.423Z,27.73
2019-03-23T12:23:10.929Z,25.97
2019-03-23T12:25:39.431Z,26.43
2019-03-23T12:28:07.823Z,25.93
2019-03-23T12:30:36.243Z,25.00
2019-03-23T12:33:04.745Z,29.37
2019-03-23T12:35:33.466Z,27.47
2019-03-23T12:38:01.872Z,26.77
2019-03-23T12:40:30.281Z,25.87
2019-03-23T12:42:59.220Z,29.53
2019-03-23T12:45:27.624Z,26.50
2019-03-23T12:47:56.792Z,26.87
2019-03-23T12:50:25.228Z,28.37
2019-03-23T12:52:53.606Z,26.27
2019-03-23T12:55:22.063Z,26.90
2019-03-23T12:57:50.871Z,29.57
2019-03-23T13:00:19.716Z,31.30
2019-03-23T13:02:48.120Z,26.37
2019-03-23T13:05:16.534Z,26.90
2019-03-23T13:07:45.022Z,25.73
2019-03-23T13:10:14.381Z,32.10
2019-03-23T13:12:42.780Z,25.87
2019-03-23T13:15:13.702Z,29.57
2019-03-23T13:17:42.199Z,25.80
2019-03-23T13:20:11.518Z,30.10
2019-03-23T13:22:40.066Z,28.27
2019-03-23T13:25:09.228Z,27.73
2019-03-23T13:27:57.057Z,25.97
2019-03-23T13:30:25.458Z,26.43
2019-03-23T13:32:53.983Z,26.07
2019-03-23T13:35:22.451Z,29.87
2019-03-23T13:37:50.878Z,27.83
2019-03-23T13:40:19.279Z,26.47
2019-03-23T13:42:47.753Z,25.67
2019-03-23T13:45:16.739Z,26.13
2019-03-23T13:47:45.182Z,24.90
2019-03-23T13:50:15.680Z,29.73
2019-03-23T13:52:44.163Z,28.53
2019-03-23T13:55:46.328Z,27.03
2019-03-23T13:58:15.404Z,26.77
2019-03-23T14:00:43.842Z,29.90
2019-03-23T14:03:12.499Z,27.60
2019-03-23T14:05:40.988Z,29.07
2019-03-23T14:08:09.411Z,28.40
2019-03-23T14:10:37.895Z,29.83
2019-03-23T14:13:06.409Z,28.57
2019-03-23T14:15:34.847Z,28.87
2019-03-23T14:18:03.248Z,29.13
2019-03-23T14:20:31.854Z,28.03
2019-03-23T14:23:02.916Z,25.57
2019-03-23T14:25:30.398Z,30.97
2019-03-23T14:27:58.798Z,28.40
2019-03-23T14:30:27.219Z,27.67
2019-03-23T14:32:55.627Z,28.00
2019-03-23T14:35:24.044Z,30.07
2019-03-23T14:37:52.746Z,27.93
2019-03-23T14:40:41.431Z,28.37
2019-03-23T14:43:09.947Z,27.20
2019-03-23T14:45:38.370Z,27.63
2019-03-23T14:48:06.781Z,28.70
2019-03-23T14:50:35.281Z,31.00
2019-03-23T14:53:03.693Z,32.50
2019-03-23T14:55:32.123Z,30.07
2019-03-23T14:58:01.490Z,31.87
2019-03-23T15:00:31.544Z,30.00
2019-03-23T15:02:59.959Z,29.43
2019-03-23T15:05:29.669Z,29.00
2019-03-23T15:07:58.068Z,31.03
2019-03-23T15:10:26.470Z,29.23
2019-03-23T15:12:54.891Z,30.73
2019-03-23T15:15:23.313Z,30.87
2019-03-23T15:17:51.866Z,29.07
2019-03-23T15:20:20.378Z,32.83
2019-03-23T15:22:48.999Z,30.73
2019-03-23T15:25:17.417Z,31.37
2019-03-23T15:27:46.106Z,32.97
2019-03-23T15:30:14.661Z,31.47
2019-03-23T15:32:43.060Z,30.93
2019-03-23T15:35:30.832Z,31.83
2019-03-23T15:37:59.225Z,33.67
2019-03-23T15:40:27.635Z,32.87
2019-03-23T15:42:56.075Z,29.80
2019-03-23T15:45:25.047Z,30.00
2019-03-23T15:47:53.450Z,30.83
2019-03-23T15:50:21.893Z,30.27
2019-03-23T15:52:50.290Z,30.90
2019-03-23T15:55:18.710Z,28.73
2019-03-23T15:57:47.144Z,30.27
2019-03-23T16:00:15.638Z,31.00
2019-03-23T16:02:44.072Z,29.50
2019-03-23T16:05:12.581Z,31.90
2019-03-23T16:07:41.498Z,31.43
2019-03-23T16:10:10.242Z,28.33
2019-03-23T16:12:38.657Z,29.50
2019-03-23T16:15:09.905Z,36.30
2019-03-23T16:17:39.625Z,27.97
2019-03-23T16:20:12.200Z,31.57
2019-03-23T16:22:41.047Z,31.27
2019-03-23T16:25:10.161Z,32.40
2019-03-23T16:27:38.575Z,28.33
2019-03-23T16:30:09.391Z,31.23
2019-03-23T16:32:37.801Z,29.23
2019-03-23T16:35:07.144Z,33.13
2019-03-23T16:37:35.649Z,31.10
2019-03-23T16:40:06.642Z,32.83
2019-03-23T16:42:44.545Z,28.70
2019-03-23T16:45:08.621Z,30.43
2019-03-23T16:47:37.247Z,31.13
2019-03-23T16:50:08.287Z,32.60
2019-03-23T16:52:38.119Z,30.63
2019-03-23T16:55:10.169Z,30.60
2019-03-23T16:57:38.567Z,33.17
2019-03-23T17:00:09.367Z,31.53
2019-03-23T17:02:37.854Z,30.70
2019-03-23T17:05:06.813Z,28.00
2019-03-23T17:07:36.473Z,30.37
2019-03-23T17:10:06.418Z,30.33
2019-03-23T17:12:34.929Z,34.67
2019-03-23T17:15:05.389Z,32.30
2019-03-23T17:17:33.808Z,32.47
2019-03-23T17:20:02.250Z,33.87
2019-03-23T17:22:30.683Z,36.67
2019-03-23T17:24:59.250Z,32.87
2019-03-23T17:27:28.130Z,36.30
2019-03-23T17:29:56.550Z,34.43
2019-03-23T17:32:25.028Z,35.53
2019-03-23T17:34:53.534Z,32.27
2019-03-23T17:37:21.938Z,35.30
2019-03-23T17:39:50.361Z,33.87
2019-03-23T17:42:18.766Z,34.97
2019-03-23T17:44:47.200Z,39.57
2019-03-23T17:47:15.711Z,35.93
2019-03-23T17:49:44.111Z,35.67
2019-03-23T17:52:12.522Z,38.53
2019-03-23T17:54:40.938Z,31.43
2019-03-23T17:57:09.364Z,37.70
2019-03-23T17:59:37.745Z,33.03
2019-03-23T18:02:06.518Z,37.00
2019-03-23T18:04:34.917Z,37.50
2019-03-23T18:07:03.317Z,36.73
2019-03-23T18:09:31.818Z,41.03
2019-03-23T18:12:00.218Z,33.67
2019-03-23T18:14:28.625Z,36.83
2019-03-23T18:16:57.065Z,38.23
2019-03-23T18:19:25.486Z,41.47
2019-03-23T18:21:53.905Z,36.87
2019-03-23T18:24:22.299Z,38.73
2019-03-23T18:26:50.726Z,41.77
2019-03-23T18:29:19.117Z,40.20
2019-03-23T18:31:47.912Z,40.43
2019-03-23T18:34:16.322Z,45.60
2019-03-23T18:36:45.000Z,36.90
2019-03-23T18:39:14.938Z,35.87
2019-03-23T18:41:43.350Z,37.73
2019-03-23T18:44:16.136Z,38.23
2019-03-23T18:46:42.122Z,43.87
2019-03-23T18:49:10.545Z,37.33
2019-03-23T18:51:38.963Z,38.37
2019-03-23T18:54:07.401Z,36.40
2019-03-23T18:56:35.802Z,39.10
2019-03-23T18:59:04.194Z,39.50
2019-03-23T19:01:39.131Z,37.13
2019-03-23T19:04:07.536Z,45.73
2019-03-23T19:06:35.958Z,40.23
2019-03-23T19:09:06.766Z,42.20
2019-03-23T19:11:35.202Z,38.27
2019-03-23T19:14:03.768Z,40.03
2019-03-23T19:16:32.196Z,45.60
2019-03-23T19:19:00.660Z,41.93
2019-03-23T19:21:29.054Z,49.93
2019-03-23T19:23:57.478Z,37.33
2019-03-23T19:26:25.887Z,48.33
2019-03-23T19:28:54.298Z,43.93
2019-03-23T19:31:23.670Z,43.87
2019-03-23T19:33:52.235Z,42.43
2019-03-23T19:36:20.640Z,40.03
2019-03-23T19:38:49.095Z,46.50
2019-03-23T19:41:17.592Z,41.63
2019-03-23T19:43:49.712Z,44.97
2019-03-23T19:46:16.052Z,51.23
2019-03-23T19:48:44.485Z,42.57
2019-03-23T19:51:12.894Z,41.53
2019-03-23T19:53:41.292Z,44.63
2019-03-23T19:56:09.986Z,47.40
2019-03-23T19:58:38.387Z,37.03
2019-03-23T20:01:06.791Z,40.03
2019-03-23T20:03:35.204Z,47.00
2019-03-23T20:06:03.631Z,44.13
2019-03-23T20:08:32.098Z,44.93
2019-03-23T20:11:00.481Z,43.53
2019-03-23T20:13:29.378Z,42.07
2019-03-23T20:15:57.807Z,43.73
2019-03-23T20:18:26.286Z,43.90
2019-03-23T20:21:08.077Z,41.87
2019-03-23T20:23:36.708Z,47.63
2019-03-23T20:26:05.140Z,46.40
2019-03-23T20:28:33.603Z,41.30
2019-03-23T20:31:02.067Z,45.30
2019-03-23T20:33:30.450Z,53.33
2019-03-23T20:35:59.779Z,46.50
2019-03-23T20:38:35.898Z,46.83
2019-03-23T20:41:04.328Z,50.50
2019-03-23T20:43:32.757Z,50.57
2019-03-23T20:46:01.625Z,52.10
2019-03-23T20:48:30.144Z,46.43
2019-03-23T20:50:58.531Z,46.10
2019-03-23T20:53:27.179Z,50.07
2019-03-23T20:55:55.577Z,48.47
2019-03-23T20:58:23.994Z,49.70
2019-03-23T21:00:52.415Z,46.13
2019-03-23T21:03:20.822Z,51.33
2019-03-23T21:05:49.244Z,48.80
2019-03-23T21:08:17.937Z,42.60
2019-03-23T21:10:46.377Z,49.97
2019-03-23T21:13:15.020Z,48.37
2019-03-23T21:15:43.483Z,53.83
2019-03-23T21:18:11.887Z,52.57
2019-03-23T21:20:40.296Z,49.47
2019-03-23T21:23:08.959Z,49.57
2019-03-23T21:25:37.422Z,48.77
2019-03-23T21:28:05.810Z,48.83
2019-03-23T21:30:34.220Z,53.90
2019-03-23T21:33:02.666Z,49.33
2019-03-23T21:35:31.059Z,57.13
2019-03-23T21:37:59.475Z,53.17
2019-03-23T21:40:27.883Z,53.00
2019-03-23T21:42:56.286Z,52.77
2019-03-23T21:45:24.854Z,57.03
2019-03-23T21:47:53.267Z,57.27
2019-03-23T21:50:21.673Z,49.63
2019-03-23T21:52:50.173Z,57.00
2019-03-23T21:55:18.552Z,54.57
2019-03-23T21:57:46.992Z,48.73
2019-03-23T22:00:18.465Z,58.10
2019-03-23T22:02:55.690Z,55.53
2019-03-23T22:05:24.087Z,58.77
2019-03-23T22:07:52.483Z,56.27
2019-03-23T22:10:20.931Z,66.07
2019-03-23T22:12:49.391Z,63.53
2019-03-23T22:15:18.122Z,58.13
2019-03-23T22:17:46.521Z,65.83
2019-03-23T22:20:14.918Z,59.50
2019-03-23T22:22:43.314Z,62.97
2019-03-23T22:25:11.823Z,62.80
2019-03-23T22:27:40.213Z,61.83
2019-03-23T22:30:11.160Z,66.07
2019-03-23T22:32:39.554Z,74.30
2019-03-23T22:35:08.586Z,66.50
2019-03-23T22:37:37.045Z,68.50
2019-03-23T22:40:09.553Z,65.70
2019-03-23T22:42:37.959Z,67.63
2019-03-23T22:45:08.173Z,72.00
2019-03-23T22:47:36.849Z,68.50
2019-03-23T22:50:09.122Z,76.20
2019-03-23T22:52:37.599Z,64.47
2019-03-23T22:55:07.043Z,75.37
2019-03-23T22:57:35.443Z,69.03
2019-03-23T23:00:06.464Z,69.30
2019-03-23T23:02:35.156Z,73.83
2019-03-23T23:05:08.774Z,67.87
2019-03-23T23:07:37.170Z,80.67
2019-03-23T23:10:07.630Z,63.67
2019-03-23T23:12:36.058Z,66.93
2019-03-23T23:15:06.489Z,66.00
2019-03-23T23:17:34.897Z,74.17
2019-03-23T23:20:05.614Z,79.33
2019-03-23T23:22:34.009Z,85.53
2019-03-23T23:25:02.891Z,73.30
2019-03-23T23:27:31.386Z,62.67
2019-03-23T23:29:59.814Z,67.70
2019-03-23T23:32:28.206Z,81.17
2019-03-23T23:34:56.597Z,80.43
2019-03-23T23:37:25.010Z,79.53
2019-03-23T23:39:53.402Z,84.23
2019-03-23T23:42:21.810Z,75.17
2019-03-23T23:44:50.202Z,85.60
2019-03-23T23:47:18.602Z,89.37
2019-03-23T23:49:47.019Z,81.93
2019-03-23T23:52:15.414Z,80.70
2019-03-23T23:54:43.801Z,79.97
2019-03-23T23:57:12.237Z,72.43
2019-03-23T23:59:40.636Z,85.17
